Montopolis, Texas
Current Conditions -  °F | °C
As of 8:08 PM on Saturday 22 Nov 2014 (Local Time) from KAUS Reporting Station
Thunderstorm Thunderstorm  
Wind Chill: 17°   Ceiling: 2200
Heat Index: 17°   Visibility: 5mi
Dew Point: 17°   Wind: 7mph
Humidity: 100%   Direction: 10°N
Pressure: 29.75"   Gusts: NA
Location:  30.2284°N, 97.7133°W
Report Text: KAUS 230208Z 01006KT 5SM -TSRA BR SCT006 BKN022CB OVC048 17/17 A2975 RMK AO2 FRQ LTGICCCCG SW-NE TS SW-NE MOV NE P0001 T01670167 $
Loading
Personal Weather Stations






























Interactive Weather Map New forecast layout! Learn more

10-Day Weather Forecast

Advertisements
Track Severe Weather on mobile